Time;durP1;ratioP1;P1;durP2;ratioP2;P2;SDS_P1;SDS_P2;PMS_P1;PMS_P2;Temp;Humidity;BMP_temperature;BMP_pressure;BME280_temperature;BME280_humidity;BME280_pressure;Samples;Min_cycle;Max_cycle;Signal;HPM_P1;HPM_P2
2021/12/14 00:01:21;;;;;;;19.60;13.30;;;5.80;99.90;;;4.51;99.79;99090.66;5089251;28;20534;-68
2021/12/14 00:03:52;;;;;;;19.23;13.90;;;5.90;99.90;;;4.56;99.79;99087.53;5086445;28;20531;-68
2021/12/14 00:06:21;;;;;;;20.20;12.40;;;5.90;99.90;;;4.55;99.17;99086.69;5085940;28;20459;-70
2021/12/14 00:08:55;;;;;;;16.30;13.33;;;5.90;99.90;;;4.46;99.86;99087.59;5090897;28;21118;-68
2021/12/14 00:11:33;;;;;;;20.90;13.40;;;5.90;99.90;;;4.49;99.25;99088.16;5089998;28;20516;-70
2021/12/14 00:14:24;;;;;;;20.60;12.60;;;5.90;99.90;;;4.43;99.78;99080.69;5089951;28;20471;-67
2021/12/14 00:16:59;;;;;;;18.90;12.80;;;5.90;99.90;;;4.60;99.26;99084.41;5082032;28;20533;-68
2021/12/14 00:19:28;;;;;;;17.53;13.13;;;5.90;99.90;;;4.39;99.21;99045.34;5080526;28;20601;-68
2021/12/14 00:22:03;;;;;;;17.70;12.53;;;5.90;99.90;;;4.54;99.29;99075.13;5086678;28;20520;-69
2021/12/14 00:24:30;;;;;;;18.20;13.40;;;5.90;99.90;;;4.51;99.08;99080.81;5089660;28;20462;-67
2021/12/14 00:27:04;;;;;;;21.97;14.93;;;5.90;99.90;;;4.48;99.34;99078.44;5086490;28;20459;-67
2021/12/14 00:29:35;;;;;;;18.60;12.73;;;5.90;99.80;;;4.59;98.70;99081.88;5085443;28;20452;-68
2021/12/14 00:32:09;;;;;;;21.20;14.63;;;5.90;99.90;;;4.49;99.77;99087.28;5081123;28;20476;-68
2021/12/14 00:34:39;;;;;;;20.27;13.70;;;5.90;99.90;;;4.43;99.58;99088.72;5098281;28;20571;-68
2021/12/14 00:37:09;;;;;;;20.00;14.00;;;5.90;99.90;;;4.37;99.61;99092.00;5084357;28;20515;-68
2021/12/14 00:39:37;;;;;;;21.70;14.53;;;5.80;99.90;;;4.29;100.00;99086.53;5087595;28;20459;-68
2021/12/14 00:42:05;;;;;;;22.83;14.33;;;5.70;99.90;;;4.36;100.00;99074.28;5086366;28;20843;-68
2021/12/14 00:44:33;;;;;;;23.70;15.47;;;5.80;99.90;;;4.32;100.00;99086.25;5085272;28;20545;-67
2021/12/14 00:47:00;;;;;;;19.50;13.67;;;5.80;99.90;;;4.22;100.00;99081.81;5088060;28;20543;-69
2021/12/14 00:49:29;;;;;;;24.70;15.10;;;5.70;99.90;;;4.36;100.00;99085.81;5089270;28;20816;-67
2021/12/14 00:51:56;;;;;;;25.10;15.10;;;5.80;99.90;;;4.27;100.00;99091.22;5089560;28;20464;-69
2021/12/14 00:54:25;;;;;;;23.30;14.73;;;5.70;99.90;;;4.38;100.00;99077.63;5083684;28;20507;-68
2021/12/14 00:56:53;;;;;;;23.43;14.93;;;5.80;99.90;;;4.40;100.00;99091.69;5087219;28;20524;-67
2021/12/14 00:59:22;;;;;;;22.80;16.63;;;5.80;99.90;;;4.41;100.00;99080.00;5087190;28;20485;-67
2021/12/14 01:01:55;;;;;;;22.40;14.50;;;5.80;99.90;;;4.48;99.43;99096.31;5082495;28;20537;-68
2021/12/14 01:04:28;;;;;;;19.30;14.57;;;5.80;99.90;;;4.48;100.00;99089.13;5086933;28;20452;-68
2021/12/14 01:06:57;;;;;;;18.97;14.00;;;5.90;99.90;;;4.61;99.11;99090.59;5086513;28;20501;-69
2021/12/14 01:09:32;;;;;;;19.00;14.50;;;5.90;99.90;;;4.42;99.37;99083.53;5087293;28;20505;-69
2021/12/14 01:12:07;;;;;;;21.70;15.13;;;5.80;99.90;;;4.37;100.00;99086.66;5085383;28;20545;-68
2021/12/14 01:14:46;;;;;;;23.63;14.90;;;5.80;99.90;;;4.40;100.00;99075.66;5083865;28;20552;-69
2021/12/14 01:17:28;;;;;;;17.50;13.33;;;5.80;99.90;;;4.48;100.00;99075.75;5082892;28;20542;-69
2021/12/14 01:20:00;;;;;;;18.90;13.43;;;5.80;99.90;;;4.45;99.43;99081.38;5082823;28;20482;-68
2021/12/14 01:22:41;;;;;;;16.87;13.30;;;5.90;99.90;;;4.41;99.21;99080.00;5090565;28;21038;-68
2021/12/14 01:25:16;;;;;;;16.20;12.77;;;5.80;99.90;;;4.44;99.20;99085.06;5089585;28;20938;-68
2021/12/14 01:27:52;;;;;;;16.00;12.20;;;5.90;99.90;;;4.33;99.77;99078.06;5087726;28;20498;-67
2021/12/14 01:30:31;;;;;;;15.47;12.70;;;5.80;99.90;;;4.37;100.00;99082.13;5092687;28;21785;-68
2021/12/14 01:33:04;;;;;;;17.57;13.67;;;5.80;99.90;;;4.35;100.00;99092.16;5086439;28;20978;-68
2021/12/14 01:35:37;;;;;;;16.53;13.13;;;5.80;99.90;;;4.24;100.00;99090.53;5093831;28;20484;-68
2021/12/14 01:38:21;;;;;;;16.10;13.10;;;5.80;99.90;;;4.39;99.89;99087.34;5088926;28;20511;-68
2021/12/14 01:40:54;;;;;;;17.33;13.53;;;5.80;99.90;;;4.45;100.00;99073.34;5090602;28;20462;-68
2021/12/14 01:43:24;;;;;;;15.80;12.70;;;5.80;99.90;;;4.46;99.18;99087.59;5089608;28;20459;-67
2021/12/14 01:45:52;;;;;;;15.90;12.70;;;5.80;99.90;;;4.34;99.67;99081.63;5089222;28;20483;-68
2021/12/14 01:48:20;;;;;;;14.90;12.70;;;5.80;99.90;;;4.32;99.82;99083.56;5090922;28;20550;-68
2021/12/14 01:50:52;;;;;;;15.73;12.50;;;5.70;99.90;;;4.23;100.00;99083.47;5091532;28;20535;-69
2021/12/14 01:53:22;;;;;;;17.90;13.43;;;5.70;99.90;;;4.24;100.00;99087.84;5090871;28;20544;-68
2021/12/14 01:55:53;;;;;;;14.80;12.07;;;5.60;99.90;;;4.20;100.00;99067.72;5092434;28;20456;-67
2021/12/14 01:58:25;;;;;;;15.97;11.80;;;5.70;99.90;;;4.40;100.00;99086.34;5090057;28;20466;-68
2021/12/14 02:00:56;;;;;;;13.00;11.53;;;5.70;99.90;;;4.41;98.90;99082.69;5085392;28;21097;-67
2021/12/14 02:03:32;;;;;;;12.23;10.40;;;5.80;99.90;;;4.43;99.01;99082.53;5086318;28;20968;-68
2021/12/14 02:06:01;;;;;;;13.80;11.40;;;5.80;99.90;;;4.54;98.10;99085.84;5085529;28;20491;-70
2021/12/14 02:08:34;;;;;;;13.10;11.67;;;5.80;99.90;;;4.41;98.66;99090.72;5087310;28;20529;-69
2021/12/14 02:11:07;;;;;;;12.60;10.53;;;5.80;99.70;;;4.21;99.32;99068.56;5087591;28;20792;-70
2021/12/14 02:13:40;;;;;;;14.87;10.57;;;5.70;99.90;;;4.18;100.00;99090.25;5088072;28;20545;-67
2021/12/14 02:16:12;;;;;;;14.30;10.93;;;5.60;99.90;;;4.22;100.00;99089.81;5077813;28;20440;-69
2021/12/14 02:18:44;;;;;;;13.23;10.93;;;5.60;99.90;;;4.22;100.00;99088.97;5087005;28;20543;-67
2021/12/14 02:21:14;;;;;;;14.90;12.17;;;5.60;99.90;;;4.34;99.51;99079.75;5102929;28;20567;-68
2021/12/14 02:23:48;;;;;;;13.83;10.87;;;5.60;99.90;;;4.24;99.64;99076.28;5086091;28;20585;-68
2021/12/14 02:26:20;;;;;;;17.00;12.87;;;5.70;99.90;;;4.19;99.54;99081.25;5089818;28;20462;-68
2021/12/14 02:28:47;;;;;;;13.53;10.73;;;5.60;99.90;;;4.18;100.00;99074.22;5084521;28;20479;-69
2021/12/14 02:31:19;;;;;;;12.73;11.03;;;5.60;99.90;;;4.16;100.00;99071.69;5088127;28;20525;-69
2021/12/14 02:33:50;;;;;;;17.03;11.53;;;5.60;99.90;;;4.31;99.68;99079.22;5084046;28;20864;-68
2021/12/14 02:36:25;;;;;;;18.00;13.47;;;5.60;99.90;;;4.28;100.00;99066.13;5088012;28;20468;-68
2021/12/14 02:39:06;;;;;;;18.70;13.60;;;5.60;99.90;;;4.18;100.00;99069.72;5080275;28;20510;-68
2021/12/14 02:41:49;;;;;;;14.83;11.53;;;5.70;99.90;;;4.23;100.00;99067.44;5096075;28;20466;-68
2021/12/14 02:44:17;;;;;;;13.60;11.53;;;5.70;99.90;;;4.22;100.00;99065.75;5088740;28;20495;-68
2021/12/14 02:46:49;;;;;;;13.60;10.10;;;5.60;99.90;;;4.33;100.00;99074.56;5076926;28;20717;-68
2021/12/14 02:49:21;;;;;;;14.07;9.83;;;5.60;99.90;;;4.35;100.00;99080.63;5088176;28;20448;-68
2021/12/14 02:51:53;;;;;;;12.10;10.50;;;5.60;99.90;;;4.31;99.15;99074.72;5113838;27;20452;-68
2021/12/14 02:54:25;;;;;;;14.47;10.33;;;5.60;99.90;;;4.03;100.00;99076.56;5085931;28;20557;-68
2021/12/14 02:56:57;;;;;;;14.77;10.40;;;5.50;99.90;;;3.91;100.00;99074.06;5081107;28;20517;-69
2021/12/14 02:59:28;;;;;;;15.40;10.17;;;5.40;99.90;;;3.88;100.00;99074.34;5081839;28;20472;-68
2021/12/14 03:01:58;;;;;;;9.80;8.00;;;5.30;99.90;;;4.01;100.00;99073.16;5082264;28;20559;-68
2021/12/14 03:04:26;;;;;;;13.83;8.10;;;5.40;99.90;;;3.96;100.00;99070.94;5103242;27;20533;-68
2021/12/14 03:06:59;;;;;;;12.43;9.27;;;5.40;99.90;;;3.78;100.00;99061.00;5088683;28;20496;-69
2021/12/14 03:09:39;;;;;;;11.70;8.70;;;5.30;99.90;;;3.80;100.00;99060.84;5083120;28;20501;-69
2021/12/14 03:12:14;;;;;;;9.80;7.77;;;5.20;99.90;;;3.64;100.00;99043.59;5097203;27;20509;-68
2021/12/14 03:14:50;;;;;;;10.03;7.57;;;5.30;99.90;;;3.74;100.00;99056.94;5087186;28;20575;-69
2021/12/14 03:17:18;;;;;;;10.43;7.30;;;5.20;99.90;;;3.71;99.82;99057.22;5085338;28;20452;-68
2021/12/14 03:19:54;;;;;;;8.50;7.30;;;5.20;99.90;;;3.63;99.48;99065.13;5083958;28;20586;-68
2021/12/14 03:22:30;;;;;;;7.00;6.30;;;5.10;99.90;;;3.76;99.94;99056.81;5105791;27;20471;-68
2021/12/14 03:24:57;;;;;;;9.30;6.83;;;5.20;99.90;;;3.68;99.88;99055.69;5088369;28;20456;-68
2021/12/14 03:27:24;;;;;;;12.43;7.43;;;5.20;99.70;;;3.59;99.69;99059.25;5083859;28;20556;-68
2021/12/14 03:29:51;;;;;;;9.47;7.20;;;5.10;99.90;;;3.66;99.81;99060.34;5085360;28;20468;-68
2021/12/14 03:32:18;;;;;;;9.33;8.33;;;5.10;99.90;;;3.62;100.00;99068.78;5084524;28;20513;-69
2021/12/14 03:34:46;;;;;;;9.57;8.57;;;5.10;99.90;;;3.61;100.00;99075.13;5088296;28;21047;-69
2021/12/14 03:37:17;;;;;;;8.70;7.60;;;5.10;99.90;;;3.39;99.87;99043.25;5090763;28;20499;-68
2021/12/14 03:39:50;;;;;;;10.83;8.50;;;5.10;99.90;;;3.61;100.00;99073.31;5084066;28;20513;-69
2021/12/14 03:42:25;;;;;;;11.07;8.53;;;5.10;99.90;;;3.59;100.00;99069.94;5088033;28;20463;-69
2021/12/14 03:44:56;;;;;;;10.07;8.40;;;5.00;99.90;;;3.44;100.00;99071.38;5086396;28;20451;-68
2021/12/14 03:47:28;;;;;;;11.23;8.10;;;5.00;99.90;;;3.53;100.00;99065.16;5088187;28;20484;-68
2021/12/14 03:49:59;;;;;;;11.70;8.60;;;5.00;99.90;;;3.53;100.00;99060.66;5087264;28;20984;-68
2021/12/14 03:52:31;;;;;;;10.97;8.60;;;5.00;99.90;;;3.48;100.00;99056.75;5089600;28;20489;-68
2021/12/14 03:55:07;;;;;;;12.97;10.50;;;5.00;99.90;;;3.54;100.00;99066.84;5084818;28;20488;-67
2021/12/14 03:57:34;;;;;;;16.10;10.27;;;5.00;99.90;;;3.47;100.00;99060.41;5083307;28;20448;-67
2021/12/14 04:00:04;;;;;;;16.03;11.30;;;4.90;99.90;;;3.56;100.00;99070.19;5080525;28;20457;-68
2021/12/14 04:02:31;;;;;;;15.93;10.37;;;4.90;99.90;;;3.62;99.64;99061.63;5086077;28;20455;-68
2021/12/14 04:05:05;;;;;;;14.13;10.70;;;5.00;99.90;;;3.50;100.00;99054.75;5086484;28;20464;-68
2021/12/14 04:07:35;;;;;;;15.57;10.03;;;5.00;99.90;;;3.63;100.00;99059.78;5085765;28;20460;-68
2021/12/14 04:10:07;;;;;;;16.27;11.40;;;5.00;99.90;;;3.47;100.00;99057.72;5084102;28;20701;-68
2021/12/14 04:12:34;;;;;;;15.30;11.33;;;4.90;99.90;;;3.49;100.00;99058.41;5087251;28;20499;-69
2021/12/14 04:15:01;;;;;;;15.40;11.00;;;4.90;99.90;;;3.53;99.41;99060.66;5088920;28;20524;-69
2021/12/14 04:17:30;;;;;;;14.50;11.07;;;5.00;99.90;;;3.54;100.00;99058.81;5089507;28;20931;-69
2021/12/14 04:19:58;;;;;;;13.83;10.27;;;5.00;99.90;;;3.60;99.43;99076.97;5089333;28;20547;-69
2021/12/14 04:22:32;;;;;;;11.57;9.30;;;5.00;99.90;;;3.64;99.26;99067.66;5086202;28;20520;-69
2021/12/14 04:25:05;;;;;;;14.77;9.90;;;5.00;99.90;;;3.40;99.99;99044.94;5084086;28;20534;-69
2021/12/14 04:27:34;;;;;;;15.70;10.40;;;5.00;99.90;;;3.62;99.70;99063.44;5098964;28;21302;-68
2021/12/14 04:30:09;;;;;;;12.40;8.30;;;5.00;99.90;;;3.48;99.72;99062.91;5086239;28;20484;-68
2021/12/14 04:32:36;;;;;;;8.97;7.40;;;4.90;99.90;;;3.46;98.56;99064.06;5102341;27;20476;-68
2021/12/14 04:35:04;;;;;;;10.10;8.40;;;4.90;99.20;;;3.44;99.29;99048.16;5090739;28;20482;-68
2021/12/14 04:37:36;;;;;;;9.73;7.33;;;4.90;99.90;;;3.48;99.29;99054.06;5089508;28;20482;-68
2021/12/14 04:40:18;;;;;;;11.13;8.30;;;4.90;99.70;;;3.47;98.42;99047.03;5105411;28;20491;-69
2021/12/14 04:53:52;;;;;;;14.23;9.03;;;4.80;99.90;;;3.44;100.00;99033.97;5087180;28;20462;-68
2021/12/14 04:56:25;;;;;;;13.77;9.70;;;4.80;99.90;;;3.53;100.00;99025.06;5087434;28;20897;-68
2021/12/14 04:58:59;;;;;;;14.57;7.73;;;4.90;99.90;;;3.44;100.00;99039.31;5084536;28;21210;-67
2021/12/14 05:01:26;;;;;;;13.87;8.20;;;4.90;99.90;;;3.74;100.00;99035.56;5089641;28;20488;-69
2021/12/14 05:03:59;;;;;;;11.17;7.67;;;5.10;99.90;;;3.81;100.00;99027.78;5087948;28;20452;-68
2021/12/14 05:06:44;;;;;;;9.17;6.80;;;5.10;99.90;;;3.83;99.97;99029.34;5090640;28;20464;-68
2021/12/14 05:09:21;;;;;;;11.80;7.47;;;5.20;99.90;;;3.57;99.77;98986.41;5083968;28;20460;-68
2021/12/14 05:11:51;;;;;;;12.57;7.77;;;5.20;99.90;;;3.73;97.83;99017.00;5104255;27;20539;-69
2021/12/14 05:14:23;;;;;;;8.57;6.40;;;5.20;97.10;;;3.77;97.66;99003.16;5097243;28;20460;-69
2021/12/14 05:16:55;;;;;;;8.90;6.77;;;5.20;98.30;;;3.86;96.97;99014.81;5090841;28;20475;-69
2021/12/14 05:19:25;;;;;;;8.90;6.33;;;5.20;95.70;;;3.62;97.70;99016.19;5089822;28;20452;-69
2021/12/14 05:21:54;;;;;;;10.60;5.90;;;5.10;95.70;;;3.80;96.95;99023.44;5090468;28;20972;-69
2021/12/14 05:24:24;;;;;;;8.37;6.10;;;5.10;96.00;;;3.33;97.43;99022.47;5090738;28;20470;-68
2021/12/14 05:27:01;;;;;;;8.90;6.80;;;4.90;94.80;;;2.98;97.91;99014.06;5087650;28;20453;-67
2021/12/14 05:29:30;;;;;;;7.73;6.10;;;4.60;95.40;;;2.83;98.79;99005.66;5093058;28;20484;-68
2021/12/14 05:32:00;;;;;;;9.17;7.10;;;4.50;96.90;;;2.80;99.80;99011.25;5084870;28;20456;-68
2021/12/14 05:34:29;;;;;;;13.53;8.20;;;4.40;99.40;;;3.46;99.98;99014.13;5084896;28;20492;-68
2021/12/14 05:36:58;;;;;;;11.83;7.20;;;4.70;99.90;;;3.62;98.58;99007.31;5088932;28;20577;-68
2021/12/14 05:39:45;;;;;;;7.50;6.20;;;4.90;99.90;;;3.57;96.71;99007.78;5086933;28;20464;-71
2021/12/14 05:45:06;;;;;;;9.03;6.20;;;4.90;92.50;;;3.01;97.03;99007.63;5094941;28;20463;-71
2021/12/14 05:47:44;;;;;;;8.07;6.13;;;4.70;93.90;;;3.10;97.51;99011.25;5110095;27;20463;-72
2021/12/14 05:50:17;;;;;;;13.10;7.73;;;4.60;95.80;;;3.46;98.50;99010.63;5092539;28;20460;-72
2021/12/14 05:52:45;;;;;;;8.60;6.47;;;4.70;99.90;;;3.22;96.70;99009.25;5091783;28;20536;-71
2021/12/14 05:55:13;;;;;;;9.03;6.70;;;4.80;94.50;;;3.11;97.91;99024.47;5094740;28;20468;-72
2021/12/14 05:57:42;;;;;;;10.27;7.10;;;4.60;95.40;;;3.02;97.66;99030.66;5089393;28;20468;-72
2021/12/14 06:00:16;;;;;;;10.63;7.03;;;4.60;96.20;;;2.84;98.90;99014.50;5076973;28;20486;-73
2021/12/14 06:02:44;;;;;;;11.27;7.77;;;4.40;97.20;;;2.88;98.94;99001.72;5092483;28;20448;-72
2021/12/14 06:05:14;;;;;;;12.20;8.20;;;4.40;98.90;;;2.80;99.53;98995.25;5087346;28;20487;-75
2021/12/14 06:07:42;;;;;;;15.70;8.20;;;4.40;99.20;;;3.22;99.85;99015.47;5074817;28;20511;-72
2021/12/14 06:10:12;;;;;;;13.17;9.03;;;4.50;99.90;;;3.43;98.15;99005.56;5089898;28;20487;-70
2021/12/14 06:12:42;;;;;;;11.90;7.77;;;4.80;99.90;;;3.15;97.70;99014.31;5091531;28;20544;-69
2021/12/14 06:15:16;;;;;;;11.73;7.87;;;4.70;95.70;;;3.15;98.30;99013.50;5087052;28;20464;-70
2021/12/14 06:17:43;;;;;;;12.20;8.50;;;4.60;97.60;;;3.06;97.94;99026.72;5091064;28;20471;-72
2021/12/14 06:20:13;;;;;;;11.77;7.27;;;4.60;96.70;;;3.14;97.17;99027.84;5085364;28;20519;-72
2021/12/14 06:22:42;;;;;;;11.10;8.37;;;4.60;96.10;;;3.33;96.11;99033.13;5089907;28;20458;-71
2021/12/14 06:25:13;;;;;;;8.83;7.00;;;4.70;94.40;;;3.37;95.23;99026.50;5088834;28;20459;-71
2021/12/14 06:27:42;;;;;;;10.07;7.00;;;4.80;94.10;;;3.54;95.51;99030.28;5088049;28;20476;-70
2021/12/14 06:30:12;;;;;;;8.07;6.70;;;4.90;93.90;;;3.39;95.15;99035.22;5089023;28;20478;-70
2021/12/14 06:32:44;;;;;;;9.77;6.90;;;4.90;93.30;;;3.02;95.81;99025.31;5085059;28;20440;-71
2021/12/14 06:35:18;;;;;;;9.40;7.03;;;4.70;93.00;;;3.15;96.38;99032.19;5088140;28;20494;-71
2021/12/14 06:38:22;;;;;;;7.90;6.27;;;4.60;94.60;;;3.17;96.41;99022.22;5100416;27;20487;-71
2021/12/14 06:40:59;;;;;;;11.00;7.10;;;4.60;94.70;;;3.02;96.86;99022.66;5082772;28;20532;-71
2021/12/14 06:43:32;;;;;;;10.07;7.30;;;4.50;95.60;;;3.02;96.46;99024.47;5089892;28;20474;-71
2021/12/14 06:46:03;;;;;;;9.90;7.10;;;4.50;95.20;;;3.00;97.15;99011.28;5084767;28;20460;-69
2021/12/14 06:48:38;;;;;;;9.17;6.87;;;4.50;96.20;;;3.01;96.52;99012.97;5089486;28;20440;-70
2021/12/14 06:51:12;;;;;;;9.83;7.10;;;4.50;94.90;;;3.05;97.21;99009.00;5086402;28;20504;-71
2021/12/14 06:53:40;;;;;;;7.63;6.00;;;4.40;95.90;;;3.05;95.92;98998.31;5091855;28;20465;-70
2021/12/14 06:56:11;;;;;;;9.47;6.67;;;4.50;94.20;;;3.05;95.47;99005.50;5082711;28;20475;-70
2021/12/14 06:58:52;;;;;;;7.13;6.00;;;4.50;93.20;;;3.17;94.44;99006.19;5087144;28;20547;-70
2021/12/14 07:01:23;;;;;;;8.10;5.00;;;4.50;93.20;;;3.02;94.48;98990.59;5087080;28;20460;-71
2021/12/14 07:03:53;;;;;;;8.17;5.10;;;4.50;92.60;;;2.74;95.65;98990.50;5106606;27;20452;-69
2021/12/14 07:06:32;;;;;;;6.53;5.03;;;4.30;93.30;;;2.86;95.79;99009.03;5089462;28;21102;-70
2021/12/14 07:09:10;;;;;;;7.27;5.87;;;4.30;93.90;;;2.62;96.92;98986.28;5091145;28;20479;-72
2021/12/14 07:11:39;;;;;;;8.90;7.22;;;4.20;94.70;;;3.02;96.50;99019.97;5073987;28;20526;-70
2021/12/14 07:14:23;;;;;;;10.20;7.30;;;4.30;96.10;;;3.25;94.80;99014.31;5097322;28;20222;-71
2021/12/14 07:16:50;;;;;;;8.40;6.50;;;4.60;93.70;;;3.02;95.18;99009.28;5075401;28;20480;-70
2021/12/14 07:19:17;;;;;;;7.70;6.90;;;4.50;93.00;;;3.08;95.50;99011.38;5081140;28;20491;-69
2021/12/14 07:21:48;;;;;;;10.20;7.30;;;4.50;93.70;;;3.32;93.98;99020.78;5083910;28;20496;-70
2021/12/14 07:24:39;;;;;;;9.80;7.13;;;4.70;92.70;;;3.35;93.25;99025.00;5094969;28;20469;-69
2021/12/14 07:27:25;;;;;;;10.80;6.70;;;4.70;91.80;;;3.39;93.00;99027.22;5070664;28;20456;-69
2021/12/14 07:30:07;;;;;;;7.43;6.03;;;4.80;91.90;;;3.40;93.56;99044.94;5088563;28;20437;-69
2021/12/14 07:32:47;;;;;;;9.17;6.80;;;4.80;91.70;;;3.46;92.07;99050.69;5079368;28;20460;-68
2021/12/14 07:35:18;;;;;;;9.17;6.60;;;4.90;91.00;;;3.32;92.97;99046.63;5080713;28;20456;-69
2021/12/14 07:37:45;;;;;;;8.77;6.70;;;4.80;91.20;;;3.25;93.17;99046.34;5082215;28;20567;-69
2021/12/14 07:40:14;;;;;;;12.07;8.00;;;4.80;91.30;;;3.08;94.84;99040.75;5084061;28;20452;-69
2021/12/14 07:42:41;;;;;;;11.73;7.30;;;4.60;92.50;;;3.33;94.50;99042.97;5084416;28;20459;-68
2021/12/14 07:45:11;;;;;;;11.50;7.73;;;4.70;93.00;;;3.05;95.03;99029.53;5089148;28;20456;-69
2021/12/14 07:47:51;;;;;;;11.73;7.50;;;4.60;93.20;;;3.11;96.41;99032.50;5086432;28;20974;-75
2021/12/14 07:50:18;;;;;;;9.63;7.50;;;4.50;95.00;;;3.00;96.76;99027.28;5106364;28;20497;-78
2021/12/14 07:52:45;;;;;;;10.47;7.77;;;4.50;95.10;;;3.03;96.89;99032.34;5084137;28;20539;-71
2021/12/14 07:55:17;;;;;;;10.43;6.63;;;4.50;95.10;;;3.26;96.63;99027.53;5086663;28;20506;-71
2021/12/14 07:57:47;;;;;;;9.67;6.87;;;4.60;95.60;;;3.47;94.80;99031.00;5101264;27;20464;-71
2021/12/14 08:00:21;;;;;;;9.90;7.13;;;4.80;93.90;;;3.44;94.29;99032.13;5078254;28;20948;-71
2021/12/14 08:02:51;;;;;;;9.30;7.23;;;4.90;93.10;;;3.38;95.00;99041.56;5091581;27;21257;-72
2021/12/14 08:05:23;;;;;;;10.00;6.70;;;4.80;93.20;;;3.31;94.53;99051.16;5072400;28;20460;-72
2021/12/14 08:07:59;;;;;;;9.20;7.77;;;4.80;92.20;;;3.47;95.00;99045.19;5082645;28;20512;-72
2021/12/14 08:10:32;;;;;;;10.77;7.23;;;4.90;93.60;;;3.29;95.08;99037.09;5097049;28;20947;-72
2021/12/14 08:13:07;;;;;;;11.63;7.40;;;4.80;92.90;;;3.24;95.13;99055.34;5077612;28;20989;-72
2021/12/14 08:15:41;;;;;;;10.40;6.67;;;4.80;92.90;;;3.48;94.88;99030.00;5069696;28;20474;-73
2021/12/14 08:18:12;;;;;;;9.80;6.70;;;4.90;92.80;;;3.46;94.51;99040.84;5078902;28;20460;-73
2021/12/14 08:20:48;;;;;;;10.63;7.13;;;4.90;92.40;;;3.51;94.75;99048.44;5085285;28;20455;-71
2021/12/14 08:23:21;;;;;;;8.43;7.00;;;4.90;92.80;;;3.72;93.40;99044.72;5085610;28;20459;-73
2021/12/14 08:25:49;;;;;;;8.10;7.10;;;5.10;92.00;;;3.63;92.61;99055.28;5072510;28;20524;-72
2021/12/14 08:28:21;;;;;;;11.37;7.70;;;5.10;91.30;;;3.44;94.18;99015.28;5082581;28;21068;-72
2021/12/14 08:30:59;;;;;;;9.43;7.20;;;5.00;92.20;;;3.82;92.77;99033.00;5086192;28;20534;-72
2021/12/14 08:33:29;;;;;;;8.67;7.00;;;5.20;91.70;;;3.87;93.75;99029.03;5086643;28;20482;-72
2021/12/14 08:36:02;;;;;;;10.50;7.90;;;5.20;92.50;;;4.15;93.03;99051.28;5082684;28;20485;-73
2021/12/14 08:38:31;;;;;;;10.37;7.67;;;5.40;92.00;;;4.19;90.79;99058.03;5083648;28;20557;-73
2021/12/14 08:41:11;;;;;;;10.40;7.07;;;5.50;90.60;;;4.28;90.74;99047.41;5094572;28;20497;-72
2021/12/14 08:43:47;;;;;;;8.77;6.73;;;5.60;90.20;;;3.92;91.95;99053.50;5091203;28;20451;-71
2021/12/14 08:46:20;;;;;;;9.63;8.00;;;5.40;89.80;;;4.12;90.73;99038.19;5085267;28;20567;-73
2021/12/14 08:48:50;;;;;;;10.63;8.13;;;5.50;90.10;;;3.93;92.22;99045.34;5099596;28;20484;-72
2021/12/14 08:51:25;;;;;;;13.30;7.77;;;5.50;90.10;;;3.92;91.80;99059.69;5087113;28;20496;-72
2021/12/14 08:53:57;;;;;;;10.83;8.60;;;5.40;90.40;;;3.81;93.33;99041.16;5093695;28;20509;-73
2021/12/14 08:56:30;;;;;;;10.90;7.90;;;5.40;90.90;;;3.72;93.42;99042.06;5084655;28;20474;-72
2021/12/14 08:58:57;;;;;;;9.00;7.50;;;5.30;91.60;;;3.69;94.65;99044.00;5084788;28;20884;-72
2021/12/14 09:01:31;;;;;;;12.67;7.73;;;5.20;92.10;;;3.69;94.92;99035.97;5083844;28;20463;-73
2021/12/14 09:04:03;;;;;;;11.80;8.57;;;5.20;92.20;;;3.92;94.94;99043.66;5084434;28;20533;-72
2021/12/14 09:06:34;;;;;;;13.20;7.40;;;5.20;93.70;;;3.93;93.13;99037.31;5102243;28;20494;-71
2021/12/14 09:09:07;;;;;;;10.13;7.87;;;5.30;91.80;;;3.67;94.49;99045.97;5083374;28;20479;-73
2021/12/14 09:11:38;;;;;;;12.87;8.70;;;5.20;92.50;;;3.82;95.55;99042.84;5082693;28;20464;-73
2021/12/14 09:14:09;;;;;;;10.00;8.33;;;5.10;93.90;;;4.14;93.10;99038.88;5102865;28;20456;-73
2021/12/14 09:16:39;;;;;;;10.20;6.90;;;5.40;92.40;;;4.09;92.25;99047.38;5085752;28;20889;-72
2021/12/14 09:19:11;;;;;;;10.40;7.47;;;5.50;91.30;;;4.14;91.94;99057.63;5086460;28;20448;-72
2021/12/14 09:21:44;;;;;;;12.10;8.03;;;5.50;90.60;;;4.03;92.38;99060.50;5084431;28;20459;-73
2021/12/14 09:24:16;;;;;;;10.80;7.53;;;5.50;91.10;;;4.00;92.29;99058.09;5102500;28;20521;-71
2021/12/14 09:26:48;;;;;;;10.20;8.00;;;5.40;90.90;;;3.90;93.27;99040.28;5087900;28;20904;-71
2021/12/14 09:29:22;;;;;;;12.23;8.17;;;5.40;91.70;;;4.07;92.43;99065.38;5086156;28;20456;-74
2021/12/14 09:31:53;;;;;;;10.90;8.47;;;5.40;91.50;;;4.08;92.47;99066.25;5085367;28;20460;-72
2021/12/14 09:34:24;;;;;;;7.20;6.20;;;5.40;91.40;;;4.10;91.92;99059.75;5089866;28;20456;-72
2021/12/14 09:36:54;;;;;;;9.80;7.97;;;5.50;91.00;;;4.05;91.69;99055.84;5099969;28;20491;-72
2021/12/14 09:39:27;;;;;;;9.80;7.10;;;5.50;90.90;;;4.06;92.86;99049.50;5085825;28;20460;-74
2021/12/14 09:41:55;;;;;;;12.40;7.63;;;5.40;91.50;;;3.77;94.37;99037.09;5103275;28;20446;-73
2021/12/14 09:44:26;;;;;;;10.07;8.03;;;5.30;92.20;;;3.86;94.09;99043.41;5087679;28;20492;-73
2021/12/14 09:47:01;;;;;;;13.00;7.90;;;5.40;92.50;;;3.53;95.52;99038.44;5086820;28;20444;-74
2021/12/14 09:49:29;;;;;;;12.20;8.27;;;5.20;93.10;;;3.74;95.01;99032.06;5089003;28;20496;-74
2021/12/14 09:52:00;;;;;;;13.20;8.00;;;5.20;93.60;;;3.82;96.08;99018.78;5086938;28;20441;-73
2021/12/14 09:54:30;;;;;;;10.03;7.17;;;5.20;94.90;;;3.60;95.60;99007.47;5105270;27;20459;-73
2021/12/14 09:57:06;;;;;;;11.93;7.87;;;5.20;93.50;;;3.69;95.89;99017.28;5094241;28;20852;-73
2021/12/14 09:59:36;;;;;;;14.07;8.07;;;5.20;93.90;;;4.00;95.15;99007.28;5094434;28;20490;-73
2021/12/14 10:02:08;;;;;;;12.53;7.60;;;5.30;94.20;;;4.71;92.22;99021.75;5091879;28;21092;-73
2021/12/14 10:04:42;;;;;;;9.93;7.10;;;5.80;92.10;;;4.91;90.89;99016.25;5086283;28;20459;-72
2021/12/14 10:07:10;;;;;;;15.53;8.50;;;6.10;90.70;;;4.30;92.58;99016.00;5092551;28;20460;-71
2021/12/14 10:09:43;;;;;;;9.67;7.37;;;5.80;91.20;;;4.60;91.31;99019.31;5092576;28;21097;-72
2021/12/14 10:12:40;;;;;;;11.20;8.83;;;5.90;90.90;;;4.91;89.59;99030.50;5104461;28;20984;-71
2021/12/14 10:15:12;;;;;;;10.20;7.97;;;6.20;90.00;;;5.19;88.78;99034.88;5085547;28;20459;-72
2021/12/14 10:17:42;;;;;;;11.57;8.20;;;6.40;87.80;;;5.20;87.56;99036.56;5101968;27;20476;-72
2021/12/14 10:20:13;;;;;;;9.83;7.23;;;6.50;86.50;;;4.98;88.53;99038.75;5086404;28;20464;-71
2021/12/14 10:22:40;;;;;;;11.10;7.87;;;6.40;86.60;;;4.96;89.84;99040.75;5087997;28;20455;-71
2021/12/14 10:25:12;;;;;;;11.77;8.10;;;6.20;89.10;;;5.21;88.79;99032.88;5087314;28;20548;-72
2021/12/14 10:27:40;;;;;;;11.93;8.13;;;6.40;88.20;;;4.81;90.28;99029.72;5088510;28;20674;-72
2021/12/14 10:30:12;;;;;;;9.90;7.60;;;6.40;87.00;;;4.89;90.17;99028.94;5087898;28;20464;-72
2021/12/14 10:32:40;;;;;;;13.93;9.23;;;6.30;88.00;;;4.88;89.68;99027.25;5085461;28;20518;-71
2021/12/14 10:35:14;;;;;;;11.63;8.53;;;6.30;88.50;;;4.87;91.70;99033.63;5090833;28;20513;-71
2021/12/14 10:37:55;;;;;;;13.03;8.53;;;6.30;89.60;;;4.75;91.34;99036.53;5083678;28;20492;-72
2021/12/14 10:43:15;;;;;;;13.53;8.77;;;6.40;87.80;;;5.07;89.17;99031.63;5086571;28;20959;-73
2021/12/14 10:45:49;;;;;;;13.90;8.10;;;6.40;88.20;;;4.98;90.25;99033.38;5091427;28;20543;-72
2021/12/14 10:48:20;;;;;;;12.03;8.37;;;6.40;89.00;;;5.24;88.77;99037.97;5084931;28;20462;-72
2021/12/14 10:50:50;;;;;;;12.53;8.90;;;6.50;88.60;;;5.24;88.71;99029.91;5086107;28;20465;-72
2021/12/14 10:53:19;;;;;;;12.20;8.73;;;6.60;88.00;;;5.20;88.99;99047.28;5088648;28;20483;-72
2021/12/14 10:55:51;;;;;;;17.60;10.23;;;6.50;88.20;;;5.03;90.37;99052.50;5078004;28;20975;-72
2021/12/14 10:58:24;;;;;;;13.33;9.17;;;6.40;89.50;;;5.24;89.21;99046.00;5082755;28;21102;-72
2021/12/14 11:00:54;;;;;;;11.03;8.00;;;6.50;88.20;;;5.28;88.78;99055.41;5081114;28;20464;-71